Terminal Aerodrome Forecast
Issued by NWS Quad Cities IA IL

Home | Current Version | Previous Version | Text Only | Print | Product List | Glossary On
Versions: 1 2 3 4 5 6 7 8 9 10 11 12 13 14
000
FTUS43 KDVN 301100
TAFDBQ
TAF
KDBQ 301121Z 3012/0112 05009KT P6SM OVC006
     FM301500 07010KT P6SM OVC010
     FM301700 09008KT P6SM BKN015
     FM302000 10010KT P6SM BKN025
     FM010100 12009KT P6SM BKN250
      AMD NOT SKED=

USA.gov is the U.S. government's official web portal to all federal, state and local government web resources and services.